Time;durP1;ratioP1;P1;durP2;ratioP2;P2;SDS_P1;SDS_P2;PMS_P1;PMS_P2;Temp;Humidity;BMP_temperature;BMP_pressure;BME280_temperature;BME280_humidity;BME280_pressure;Samples;Min_cycle;Max_cycle;Signal;HPM_P1;HPM_P2
2022/05/20 00:02:09;;;;;;;10.10;4.10;;;14.70;99.90;;;;;;5066515;28;20045;-82
2022/05/20 00:04:35;;;;;;;7.53;4.22;;;14.80;99.90;;;;;;5082832;28;20620;-82
2022/05/20 00:07:00;;;;;;;7.85;3.97;;;14.70;99.90;;;;;;5087777;28;20127;-82
2022/05/20 00:09:26;;;;;;;8.48;4.78;;;14.70;99.90;;;;;;5089301;28;20445;-82
2022/05/20 00:11:52;;;;;;;8.82;5.07;;;14.70;99.90;;;;;;5087561;28;20046;-81
2022/05/20 00:14:20;;;;;;;9.80;5.38;;;14.70;99.90;;;;;;5063087;28;20132;-81
2022/05/20 00:16:47;;;;;;;7.88;5.03;;;14.70;99.90;;;;;;5061258;28;20128;-81
2022/05/20 00:19:13;;;;;;;11.80;5.53;;;14.70;99.90;;;;;;5054321;28;20040;-81
2022/05/20 00:21:38;;;;;;;12.63;5.38;;;14.70;99.90;;;;;;5087658;28;20101;-81
2022/05/20 00:24:04;;;;;;;8.45;5.70;;;14.70;99.90;;;;;;5080414;28;20067;-81
2022/05/20 00:26:31;;;;;;;10.60;6.43;;;14.70;99.90;;;;;;5088667;28;20095;-82
2022/05/20 00:28:56;;;;;;;9.02;6.80;;;14.70;99.90;;;;;;5072626;28;20036;-83
2022/05/20 00:31:24;;;;;;;9.43;6.43;;;14.70;99.90;;;;;;5073203;28;20098;-82
2022/05/20 00:33:50;;;;;;;9.13;6.80;;;14.70;99.90;;;;;;5074345;28;20089;-83
2022/05/20 00:36:19;;;;;;;11.60;7.05;;;14.70;99.90;;;;;;5098419;28;20119;-82
2022/05/20 00:38:49;;;;;;;12.27;7.03;;;14.60;99.90;;;;;;5106093;28;20116;-81
2022/05/20 00:41:17;;;;;;;12.82;7.20;;;14.60;99.90;;;;;;5084532;28;20052;-82
2022/05/20 00:43:45;;;;;;;9.88;7.20;;;14.70;99.90;;;;;;5077261;28;20048;-82
2022/05/20 00:46:18;;;;;;;12.70;7.60;;;14.60;99.90;;;;;;5085226;28;20078;-82
2022/05/20 00:48:44;;;;;;;11.95;7.35;;;14.60;99.90;;;;;;5081734;28;20039;-82
2022/05/20 00:51:22;;;;;;;15.00;8.27;;;14.60;99.90;;;;;;5087742;28;20036;-82
2022/05/20 00:54:06;;;;;;;12.85;6.97;;;14.60;99.90;;;;;;5090634;28;20138;-82
2022/05/20 00:56:55;;;;;;;14.48;7.43;;;14.50;99.90;;;;;;5070180;28;20060;-82
2022/05/20 00:59:24;;;;;;;11.82;6.63;;;14.50;99.90;;;;;;5068783;28;20045;-82
2022/05/20 01:01:52;;;;;;;17.77;7.15;;;14.40;99.90;;;;;;5070757;28;20900;-81
2022/05/20 01:04:20;;;;;;;11.10;6.38;;;14.40;99.90;;;;;;5079921;28;20115;-82
2022/05/20 01:06:46;;;;;;;14.07;6.55;;;14.60;99.90;;;;;;5090675;28;20048;-82
2022/05/20 01:09:14;;;;;;;10.93;5.82;;;14.40;99.90;;;;;;5071408;28;20041;-82
2022/05/20 01:11:40;;;;;;;10.13;5.90;;;14.30;99.90;;;;;;5069501;28;20048;-82
2022/05/20 01:14:10;;;;;;;10.25;7.32;;;14.30;99.90;;;;;;5082063;28;20040;-82
2022/05/20 01:16:36;;;;;;;11.68;6.75;;;14.30;99.90;;;;;;5073093;28;20047;-82
2022/05/20 01:19:05;;;;;;;11.68;6.90;;;14.20;99.90;;;;;;5095783;28;20047;-81
2022/05/20 01:21:31;;;;;;;11.07;8.02;;;14.20;99.90;;;;;;5068756;28;20053;-82
2022/05/20 01:24:03;;;;;;;17.08;7.72;;;14.20;99.90;;;;;;5090754;28;20043;-82
2022/05/20 01:26:29;;;;;;;10.30;6.93;;;14.10;99.90;;;;;;5068540;28;20041;-81
2022/05/20 01:28:55;;;;;;;11.50;6.80;;;14.10;99.90;;;;;;5080342;28;20117;-82
2022/05/20 01:31:20;;;;;;;10.93;7.75;;;14.10;99.90;;;;;;5090070;28;20064;-82
2022/05/20 01:33:49;;;;;;;14.27;9.15;;;14.10;99.90;;;;;;5089128;28;20101;-82
2022/05/20 01:36:19;;;;;;;13.93;10.00;;;14.00;99.90;;;;;;5091289;28;20087;-81
2022/05/20 01:38:45;;;;;;;14.93;9.73;;;14.00;99.90;;;;;;5065655;28;20049;-81
2022/05/20 01:41:26;;;;;;;14.38;9.75;;;14.00;99.90;;;;;;5077332;28;20081;-81
2022/05/20 01:44:10;;;;;;;15.95;11.05;;;14.00;99.90;;;;;;5077499;28;20044;-82
2022/05/20 01:46:51;;;;;;;15.60;10.65;;;13.90;99.90;;;;;;5070149;28;20044;-81
2022/05/20 01:49:35;;;;;;;17.80;10.27;;;13.90;99.90;;;;;;5080472;28;20519;-81
2022/05/20 01:52:05;;;;;;;15.27;10.80;;;13.90;99.90;;;;;;5065762;28;20499;-81
2022/05/20 01:54:59;;;;;;;19.02;10.77;;;13.90;99.90;;;;;;5080401;28;20059;-81
2022/05/20 01:57:42;;;;;;;15.35;10.77;;;13.80;99.90;;;;;;5079247;28;20124;-80
2022/05/20 02:00:18;;;;;;;14.90;11.35;;;13.90;99.90;;;;;;5068290;28;20089;-81
2022/05/20 02:02:54;;;;;;;17.20;10.43;;;13.80;99.90;;;;;;5068166;28;20361;-81
2022/05/20 02:05:24;;;;;;;15.23;11.60;;;13.80;99.90;;;;;;5090157;28;20450;-81
2022/05/20 02:07:55;;;;;;;20.67;11.00;;;13.80;99.90;;;;;;5071069;28;20039;-81
2022/05/20 02:10:29;;;;;;;;;;;13.80;99.90;;;;;;5090139;28;20641;-81
2022/05/20 02:12:59;;;;;;;18.33;10.18;;;13.70;99.90;;;;;;5071604;28;19924;-81
2022/05/20 02:15:59;;;;;;;15.98;10.63;;;13.70;99.90;;;;;;5072199;28;20036;-81
2022/05/20 02:18:30;;;;;;;15.15;10.23;;;13.70;99.90;;;;;;5087120;28;20044;-81
2022/05/20 02:21:02;;;;;;;14.25;10.68;;;13.60;99.90;;;;;;5068135;28;20139;-81
2022/05/20 02:23:33;;;;;;;20.65;11.25;;;13.60;99.90;;;;;;5090146;28;20425;-81
2022/05/20 02:26:07;;;;;;;14.95;10.48;;;13.60;99.90;;;;;;5070378;28;20044;-81
2022/05/20 02:28:37;;;;;;;14.27;10.35;;;13.60;99.90;;;;;;5071511;28;20040;-82
2022/05/20 02:31:07;;;;;;;14.57;10.70;;;13.60;99.90;;;;;;5071425;28;20048;-81
2022/05/20 02:33:33;;;;;;;15.20;10.57;;;13.60;99.90;;;;;;5071838;28;20499;-81
2022/05/20 02:36:08;;;;;;;17.45;10.90;;;13.50;99.90;;;;;;5071432;28;20082;-81
2022/05/20 02:38:36;;;;;;;15.20;11.10;;;13.50;99.90;;;;;;5069792;28;20044;-81
2022/05/20 02:41:02;;;;;;;14.75;10.55;;;13.60;99.90;;;;;;5073361;28;20094;-81
2022/05/20 02:43:28;;;;;;;15.50;11.23;;;13.50;99.90;;;;;;5096584;28;20112;-82
2022/05/20 02:45:53;;;;;;;16.08;10.70;;;13.50;99.90;;;;;;5070642;28;20048;-81
2022/05/20 02:48:21;;;;;;;14.15;10.38;;;13.50;99.90;;;;;;5083421;28;20068;-81
2022/05/20 02:50:49;;;;;;;17.30;10.98;;;13.50;99.90;;;;;;5079370;28;20036;-81
2022/05/20 02:53:15;;;;;;;15.50;10.00;;;13.50;99.90;;;;;;5067861;28;20067;-81
2022/05/20 02:55:40;;;;;;;17.45;10.70;;;13.40;99.90;;;;;;5082783;28;20082;-81
2022/05/20 02:58:06;;;;;;;17.88;11.20;;;13.50;99.90;;;;;;5088414;28;20063;-81
2022/05/20 03:06:06;;;;;;;17.58;11.45;;;13.50;99.90;;;;;;5068122;28;20060;-81
2022/05/20 03:08:31;;;;;;;18.52;10.73;;;13.50;99.90;;;;;;5060774;28;20114;-82
2022/05/20 03:10:57;;;;;;;20.63;11.02;;;13.50;99.90;;;;;;5084722;28;20506;-81
2022/05/20 03:13:23;;;;;;;18.08;10.95;;;13.50;99.90;;;;;;5073510;28;20109;-82
2022/05/20 03:15:48;;;;;;;18.33;9.80;;;13.50;99.90;;;;;;5086196;28;20035;-81
2022/05/20 03:18:14;;;;;;;18.70;10.20;;;13.40;99.90;;;;;;5060076;28;20494;-80
2022/05/20 03:20:42;;;;;;;15.43;9.57;;;13.40;99.90;;;;;;5064210;28;20143;-81
2022/05/20 03:23:10;;;;;;;17.27;10.15;;;13.40;99.90;;;;;;5088265;28;20051;-81
2022/05/20 03:25:37;;;;;;;15.63;10.27;;;13.40;99.90;;;;;;5050873;28;20083;-81
2022/05/20 03:28:03;;;;;;;17.33;10.02;;;13.40;99.90;;;;;;5072728;28;20389;-81
2022/05/20 03:30:29;;;;;;;17.02;10.95;;;13.40;99.90;;;;;;5087234;28;20051;-81
2022/05/20 03:32:54;;;;;;;18.55;10.50;;;13.40;99.90;;;;;;5087341;28;20032;-81
2022/05/20 03:35:20;;;;;;;16.40;9.48;;;13.40;99.90;;;;;;5060119;28;20082;-81
2022/05/20 03:37:45;;;;;;;15.65;9.90;;;13.40;99.90;;;;;;5064901;28;20123;-81
2022/05/20 03:40:11;;;;;;;17.27;10.10;;;13.40;99.90;;;;;;5067252;28;20124;-81
2022/05/20 03:42:40;;;;;;;20.98;10.52;;;13.40;99.90;;;;;;5064416;28;20361;-81
2022/05/20 03:45:09;;;;;;;;;;;13.40;99.90;;;;;;5083364;28;20071;-81
2022/05/20 03:47:35;;;;;;;17.73;10.15;;;13.30;99.90;;;;;;5081096;28;20048;-81
2022/05/20 03:50:02;;;;;;;15.90;10.77;;;13.30;99.90;;;;;;5097602;28;20063;-81
2022/05/20 03:52:28;;;;;;;17.75;11.25;;;13.30;99.90;;;;;;5069093;28;20036;-81
2022/05/20 03:54:53;;;;;;;18.48;10.73;;;13.30;99.90;;;;;;5098846;28;20066;-81
2022/05/20 03:57:19;;;;;;;19.85;10.48;;;13.30;99.90;;;;;;5047010;28;20053;-81
2022/05/20 03:59:44;;;;;;;17.15;10.50;;;13.30;99.90;;;;;;5050935;28;20104;-81
2022/05/20 04:02:12;;;;;;;15.80;11.25;;;13.30;99.90;;;;;;5063790;28;20055;-80
2022/05/20 04:04:44;;;;;;;19.48;11.07;;;13.30;99.90;;;;;;5055055;28;20036;-80
2022/05/20 04:07:23;;;;;;;16.45;10.32;;;13.30;99.90;;;;;;5047988;28;20075;-81
2022/05/20 04:09:49;;;;;;;16.63;10.45;;;13.30;99.90;;;;;;5067270;28;20342;-81
2022/05/20 04:12:36;;;;;;;22.33;12.10;;;13.20;99.90;;;;;;5067793;28;20050;-81
2022/05/20 04:15:04;;;;;;;16.77;10.98;;;13.30;99.90;;;;;;5049919;28;20062;-81
2022/05/20 04:17:30;;;;;;;16.95;11.35;;;13.30;99.90;;;;;;5037386;28;20049;-81
2022/05/20 04:19:56;;;;;;;16.73;11.50;;;13.30;99.90;;;;;;5064958;28;20135;-82
2022/05/20 04:22:28;;;;;;;20.75;11.38;;;13.30;99.90;;;;;;5048069;28;20190;-81
2022/05/20 04:24:54;;;;;;;17.60;11.27;;;13.30;99.90;;;;;;5064296;28;20048;-81
2022/05/20 04:27:20;;;;;;;18.23;12.25;;;13.40;99.90;;;;;;5066979;28;20143;-82
2022/05/20 04:29:45;;;;;;;19.50;13.90;;;13.40;99.90;;;;;;5041932;28;20559;-82
2022/05/20 04:32:11;;;;;;;19.85;13.00;;;13.40;99.90;;;;;;5065515;28;20048;-82
2022/05/20 04:34:37;;;;;;;19.42;12.45;;;13.40;99.90;;;;;;5046708;28;20140;-81
2022/05/20 04:37:03;;;;;;;20.27;12.95;;;13.40;99.90;;;;;;5049665;28;20044;-81
2022/05/20 04:39:29;;;;;;;22.10;12.90;;;13.40;99.90;;;;;;5068244;28;20399;-81
2022/05/20 04:47:26;;;;;;;19.13;13.73;;;13.40;99.90;;;;;;5042883;28;20053;-82
2022/05/20 04:49:54;;;;;;;18.30;12.75;;;13.40;99.90;;;;;;5045602;28;20163;-80
2022/05/20 04:52:21;;;;;;;20.00;13.38;;;13.40;99.90;;;;;;5049034;28;20052;-81
2022/05/20 04:54:50;;;;;;;19.90;12.80;;;13.40;99.90;;;;;;5048934;28;20367;-81
2022/05/20 04:57:32;;;;;;;18.95;13.35;;;13.40;99.90;;;;;;5065995;28;20592;-81
2022/05/20 05:00:05;;;;;;;21.50;13.23;;;13.40;99.90;;;;;;5045624;28;20075;-82
2022/05/20 05:02:32;;;;;;;20.05;14.05;;;13.50;99.90;;;;;;5046271;28;20071;-82
2022/05/20 05:04:57;;;;;;;20.02;13.38;;;13.50;99.90;;;;;;5066331;28;20058;-81
2022/05/20 05:07:24;;;;;;;15.52;12.27;;;13.40;99.90;;;;;;5047310;28;20056;-81
2022/05/20 05:09:50;;;;;;;19.30;11.73;;;13.50;99.90;;;;;;5055211;28;20127;-81
2022/05/20 05:12:16;;;;;;;20.38;12.50;;;13.50;99.90;;;;;;5062787;28;20048;-82
2022/05/20 05:14:51;;;;;;;20.92;13.05;;;13.60;99.90;;;;;;5060518;28;20173;-82
2022/05/20 05:20:13;;;;;;;21.73;11.68;;;13.60;99.90;;;;;;5075481;28;20196;-82
2022/05/20 05:22:39;;;;;;;22.45;12.40;;;13.60;99.90;;;;;;5052541;28;20033;-82
2022/05/20 05:25:05;;;;;;;18.25;11.63;;;13.70;99.90;;;;;;5057937;28;20044;-82
2022/05/20 05:27:31;;;;;;;17.38;11.32;;;13.70;99.90;;;;;;5068904;28;20051;-82
2022/05/20 05:29:57;;;;;;;18.75;11.55;;;13.70;99.90;;;;;;5050028;28;20446;-81
2022/05/20 05:32:22;;;;;;;18.73;12.57;;;13.80;99.90;;;;;;5055138;28;20040;-80
2022/05/20 05:34:48;;;;;;;21.15;11.18;;;13.90;99.90;;;;;;5049922;28;20045;-81
2022/05/20 05:37:13;;;;;;;22.42;11.23;;;13.90;99.90;;;;;;5061537;28;20044;-82
2022/05/20 05:39:39;;;;;;;19.88;12.23;;;13.90;99.90;;;;;;5050795;28;20518;-82
2022/05/20 05:42:05;;;;;;;16.92;10.10;;;14.00;99.90;;;;;;5066422;28;20043;-81
2022/05/20 05:44:31;;;;;;;18.17;11.27;;;14.00;99.90;;;;;;5057192;28;20127;-81
2022/05/20 05:46:56;;;;;;;17.77;10.40;;;14.00;99.90;;;;;;5052366;28;20392;-82
2022/05/20 05:49:22;;;;;;;18.02;11.23;;;14.00;99.90;;;;;;5067954;28;20472;-82
2022/05/20 05:51:48;;;;;;;17.55;10.13;;;14.00;99.90;;;;;;5066398;28;20032;-83
2022/05/20 05:54:14;;;;;;;19.42;11.30;;;14.00;99.90;;;;;;5065115;28;20040;-76
2022/05/20 05:56:42;;;;;;;16.65;10.65;;;14.00;99.90;;;;;;5085928;28;20055;-76
2022/05/20 05:59:08;;;;;;;19.55;10.27;;;14.10;99.90;;;;;;5087257;28;20048;-77
2022/05/20 06:01:34;;;;;;;14.60;10.02;;;14.20;99.90;;;;;;5080056;28;20040;-76
2022/05/20 06:04:00;;;;;;;22.55;10.23;;;14.30;99.90;;;;;;5079250;28;20086;-77
2022/05/20 06:06:26;;;;;;;18.35;9.38;;;14.30;99.90;;;;;;5078632;28;20747;-76
2022/05/20 06:08:52;;;;;;;16.15;9.75;;;14.40;99.90;;;;;;5085963;28;20040;-77
2022/05/20 06:11:17;;;;;;;22.05;9.43;;;14.50;99.90;;;;;;5053537;28;20045;-77
2022/05/20 06:13:43;;;;;;;15.85;10.00;;;14.50;99.90;;;;;;5086724;28;20032;-77
2022/05/20 06:16:08;;;;;;;17.60;9.23;;;14.60;99.90;;;;;;5062859;28;20126;-77
2022/05/20 06:18:37;;;;;;;14.85;8.60;;;14.70;99.90;;;;;;5090054;28;20040;-77
2022/05/20 06:21:04;;;;;;;14.40;8.93;;;14.70;99.90;;;;;;5089025;28;20044;-77
2022/05/20 06:23:29;;;;;;;11.25;6.20;;;14.70;99.90;;;;;;5071408;28;20054;-77
2022/05/20 06:25:56;;;;;;;9.25;6.90;;;14.70;99.90;;;;;;5084086;28;20040;-77
2022/05/20 06:28:22;;;;;;;10.07;6.82;;;14.80;99.90;;;;;;5069265;28;20048;-77
2022/05/20 06:30:54;;;;;;;13.68;6.90;;;14.80;99.90;;;;;;5086692;28;20040;-77
2022/05/20 06:33:19;;;;;;;11.50;6.50;;;14.80;99.90;;;;;;5059046;28;20049;-76
2022/05/20 06:41:13;;;;;;;13.30;7.35;;;15.00;99.90;;;;;;5086210;28;20064;-76
2022/05/20 06:43:39;;;;;;;16.42;7.35;;;15.10;99.90;;;;;;5084533;28;20455;-77
2022/05/20 06:46:05;;;;;;;11.30;7.57;;;15.20;99.90;;;;;;5082129;28;20047;-77
2022/05/20 06:48:39;;;;;;;12.27;6.75;;;15.30;99.90;;;;;;5072657;28;20040;-78
2022/05/20 06:51:06;;;;;;;10.93;6.50;;;15.40;99.90;;;;;;5069091;28;20151;-76
2022/05/20 06:53:32;;;;;;;10.63;6.20;;;15.40;99.90;;;;;;5073330;28;20123;-77
2022/05/20 06:55:58;;;;;;;9.30;5.90;;;15.50;99.90;;;;;;5085404;28;20119;-77
2022/05/20 06:58:23;;;;;;;14.38;6.07;;;15.50;99.90;;;;;;5060289;28;20227;-75
2022/05/20 07:00:49;;;;;;;12.65;6.18;;;15.50;99.90;;;;;;5066897;28;20044;-76
2022/05/20 07:03:19;;;;;;;11.13;5.95;;;15.60;99.90;;;;;;5084666;28;20472;-76
2022/05/20 07:05:45;;;;;;;15.88;6.45;;;15.50;99.90;;;;;;5089183;28;20509;-76
2022/05/20 07:08:11;;;;;;;13.27;5.80;;;15.50;99.90;;;;;;5045503;28;20040;-76
2022/05/20 07:10:40;;;;;;;11.30;5.18;;;15.60;99.90;;;;;;5082794;28;20046;-76
2022/05/20 07:13:06;;;;;;;10.73;5.53;;;15.60;99.90;;;;;;5076280;28;20058;-75
2022/05/20 07:15:32;;;;;;;13.63;7.55;;;15.60;99.90;;;;;;5081571;28;20078;-76
2022/05/20 07:17:58;;;;;;;10.02;7.28;;;15.70;99.90;;;;;;5069828;28;20044;-75
2022/05/20 07:20:24;;;;;;;11.80;6.13;;;15.70;99.90;;;;;;5080681;28;20051;-76
2022/05/20 07:22:50;;;;;;;10.63;5.80;;;15.70;99.90;;;;;;5084778;28;20036;-76
2022/05/20 07:25:15;;;;;;;10.48;5.13;;;15.80;99.90;;;;;;5067500;28;20123;-75
2022/05/20 07:27:41;;;;;;;9.55;5.80;;;15.80;99.90;;;;;;5088027;28;20632;-77
2022/05/20 07:30:08;;;;;;;13.05;5.32;;;15.90;99.90;;;;;;5086469;28;20443;-76
2022/05/20 07:32:34;;;;;;;11.90;6.60;;;15.90;99.90;;;;;;5086746;28;20574;-77
2022/05/20 07:34:59;;;;;;;12.07;5.47;;;16.00;99.90;;;;;;5081090;28;20043;-76
2022/05/20 07:37:25;;;;;;;10.07;5.25;;;15.90;99.90;;;;;;5089986;28;20044;-75
2022/05/20 07:39:50;;;;;;;9.80;5.43;;;16.00;99.90;;;;;;5078900;28;20040;-78
2022/05/20 07:42:16;;;;;;;8.80;5.22;;;16.00;99.90;;;;;;5081515;28;20044;-75
2022/05/20 07:44:44;;;;;;;9.85;5.15;;;16.10;99.90;;;;;;5071478;28;20131;-77
2022/05/20 07:47:10;;;;;;;10.70;4.78;;;16.00;99.90;;;;;;5080625;28;20040;-75
2022/05/20 07:49:36;;;;;;;11.95;5.05;;;15.90;99.90;;;;;;5068963;28;20172;-77
2022/05/20 07:52:04;;;;;;;10.10;4.75;;;15.90;99.90;;;;;;5087665;28;20469;-76
2022/05/20 07:54:38;;;;;;;10.82;4.55;;;15.90;99.90;;;;;;5072437;28;20353;-76
2022/05/20 07:57:11;;;;;;;9.25;5.10;;;15.90;99.90;;;;;;5067367;28;20060;-78
2022/05/20 07:59:52;;;;;;;8.18;4.40;;;15.80;99.90;;;;;;5066411;28;20044;-76
2022/05/20 08:02:22;;;;;;;13.57;4.10;;;15.70;99.90;;;;;;5068134;28;20144;-76
2022/05/20 08:05:01;;;;;;;9.30;4.55;;;15.70;99.90;;;;;;5066951;28;20047;-75
2022/05/20 08:07:37;;;;;;;6.07;3.20;;;15.70;99.90;;;;;;5064020;28;20052;-76
2022/05/20 08:10:06;;;;;;;7.40;4.18;;;15.60;99.90;;;;;;5057936;28;20116;-75
2022/05/20 08:12:38;;;;;;;7.95;3.38;;;15.70;99.90;;;;;;5066722;28;20037;-76
2022/05/20 08:15:07;;;;;;;7.32;3.95;;;15.80;99.90;;;;;;5067708;28;20052;-75
2022/05/20 08:17:36;;;;;;;9.77;3.55;;;15.90;99.90;;;;;;5065547;28;20044;-77
2022/05/20 08:20:05;;;;;;;9.40;3.80;;;16.10;99.90;;;;;;5062873;28;20135;-78
2022/05/20 08:22:31;;;;;;;6.97;3.15;;;16.20;99.90;;;;;;5066089;28;20093;-75
2022/05/20 08:24:58;;;;;;;8.50;3.20;;;16.20;99.90;;;;;;5065696;28;20087;-76
2022/05/20 08:27:27;;;;;;;6.25;2.50;;;16.30;99.90;;;;;;5081301;28;20618;-75
2022/05/20 08:29:53;;;;;;;10.00;3.85;;;16.40;99.90;;;;;;5067640;28;20165;-76
2022/05/20 08:32:19;;;;;;;5.30;2.80;;;16.50;99.90;;;;;;5066542;28;20120;-76
2022/05/20 08:34:46;;;;;;;5.68;2.92;;;16.60;99.90;;;;;;5067388;28;20056;-76
2022/05/20 08:37:14;;;;;;;7.82;3.10;;;16.70;99.90;;;;;;5066052;28;20189;-76
2022/05/20 08:39:42;;;;;;;8.32;3.58;;;16.90;99.90;;;;;;5068913;28;20473;-78
2022/05/20 08:42:17;;;;;;;10.23;4.28;;;17.20;99.90;;;;;;5065581;28;20048;-76
2022/05/20 08:44:43;;;;;;;11.25;3.75;;;17.10;99.90;;;;;;5068457;28;20178;-76
2022/05/20 08:47:23;;;;;;;6.05;3.05;;;17.10;99.90;;;;;;5072495;28;20045;-77
2022/05/20 08:49:57;;;;;;;8.60;3.50;;;17.20;99.90;;;;;;5072371;28;20056;-76
2022/05/20 08:52:23;;;;;;;11.50;3.25;;;17.20;99.90;;;;;;5069688;28;20048;-76
2022/05/20 08:54:48;;;;;;;10.98;3.58;;;17.20;99.90;;;;;;5072171;28;20586;-77
2022/05/20 08:57:27;;;;;;;10.93;3.10;;;17.20;99.90;;;;;;5092547;28;20056;-76
2022/05/20 08:59:53;;;;;;;7.78;3.45;;;17.30;99.90;;;;;;5089470;28;20032;-76
2022/05/20 09:02:20;;;;;;;7.57;3.35;;;17.30;99.90;;;;;;5091470;28;20043;-77
2022/05/20 09:04:46;;;;;;;13.98;3.72;;;17.40;99.90;;;;;;5098337;28;20161;-76
2022/05/20 09:07:15;;;;;;;6.82;3.20;;;17.30;99.90;;;;;;5093529;28;20348;-75
2022/05/20 09:09:55;;;;;;;6.32;2.70;;;17.20;99.90;;;;;;5112679;28;20080;-76
2022/05/20 09:12:28;;;;;;;6.68;2.60;;;17.40;99.90;;;;;;5112305;28;20035;-76
2022/05/20 09:17:46;;;;;;;8.10;3.42;;;17.40;99.90;;;;;;5099877;28;20765;-76
2022/05/20 09:20:17;;;;;;;7.75;3.03;;;17.50;99.90;;;;;;5076460;28;20048;-76
2022/05/20 09:22:55;;;;;;;6.30;2.88;;;17.50;99.90;;;;;;5089965;28;20387;-76
2022/05/20 09:25:34;;;;;;;10.80;4.20;;;17.60;99.90;;;;;;5106885;28;20040;-77
2022/05/20 09:28:23;;;;;;;6.50;3.25;;;17.60;99.90;;;;;;5089504;28;20358;-77
2022/05/20 09:30:55;;;;;;;10.85;3.08;;;17.60;99.90;;;;;;5091309;28;20471;-76
2022/05/20 09:33:30;;;;;;;8.27;3.17;;;17.70;99.90;;;;;;5089595;28;20058;-78
2022/05/20 09:35:59;;;;;;;5.05;2.80;;;17.70;99.90;;;;;;5082894;28;20052;-79
2022/05/20 09:38:43;;;;;;;8.48;3.00;;;17.70;99.90;;;;;;5075624;28;20416;-79
2022/05/20 09:41:22;;;;;;;8.13;2.80;;;17.70;99.90;;;;;;5081716;28;20131;-76
2022/05/20 09:43:59;;;;;;;9.50;3.42;;;17.70;99.90;;;;;;5089477;28;20097;-77
2022/05/20 09:46:39;;;;;;;6.53;3.28;;;17.80;99.90;;;;;;5091006;28;20134;-76
2022/05/20 09:49:43;;;;;;;4.32;2.42;;;17.90;99.90;;;;;;5088988;28;20054;-76
2022/05/20 09:52:25;;;;;;;6.85;3.20;;;18.00;99.90;;;;;;5098499;28;20059;-76
2022/05/20 09:55:01;;;;;;;8.63;3.03;;;18.00;99.90;;;;;;5086416;28;20089;-77
2022/05/20 09:57:45;;;;;;;7.70;3.13;;;18.20;99.90;;;;;;5075611;28;20115;-76
2022/05/20 10:00:26;;;;;;;10.32;3.22;;;18.20;99.90;;;;;;5067670;28;20048;-76
2022/05/20 10:03:03;;;;;;;9.13;3.50;;;18.30;99.90;;;;;;5034169;28;20480;-76
2022/05/20 10:05:41;;;;;;;10.10;3.45;;;18.30;99.90;;;;;;5057551;28;20051;-76
2022/05/20 10:08:22;;;;;;;5.63;2.47;;;18.40;99.90;;;;;;5055795;28;20072;-75
2022/05/20 10:11:09;;;;;;;7.78;3.20;;;18.50;99.90;;;;;;5039612;28;20052;-76
2022/05/20 10:13:43;;;;;;;7.18;2.35;;;18.40;99.90;;;;;;5057770;28;20436;-77
2022/05/20 10:16:47;;;;;;;6.90;2.33;;;18.40;99.90;;;;;;5061388;28;20036;-75
2022/05/20 10:19:28;;;;;;;5.20;2.20;;;18.30;99.90;;;;;;5036911;28;20076;-77
2022/05/20 10:22:05;;;;;;;8.07;2.38;;;18.30;99.90;;;;;;5057508;28;20044;-76
2022/05/20 10:24:49;;;;;;;6.53;2.00;;;18.40;99.90;;;;;;5030799;28;20060;-77
2022/05/20 10:27:36;;;;;;;5.38;2.08;;;18.40;99.90;;;;;;5042007;28;20056;-77
2022/05/20 10:33:09;;;;;;;10.40;2.38;;;18.40;99.90;;;;;;5032872;28;20064;-77
2022/05/20 10:36:08;;;;;;;5.85;2.30;;;18.40;99.90;;;;;;5045653;28;20140;-78
2022/05/20 10:38:57;;;;;;;6.28;2.90;;;18.50;99.90;;;;;;5054142;28;20048;-78
2022/05/20 10:41:38;;;;;;;7.82;2.58;;;18.60;99.90;;;;;;5038344;28;20080;-75
2022/05/20 10:50:31;;;;;;;5.75;2.72;;;18.70;99.90;;;;;;5060503;28;20072;-76
2022/05/20 10:53:28;;;;;;;7.88;2.92;;;18.80;99.90;;;;;;5059200;28;20104;-75
2022/05/20 10:56:16;;;;;;;4.88;2.38;;;18.80;99.90;;;;;;5011866;28;1060361;-78
2022/05/20 10:59:03;;;;;;;7.28;2.95;;;18.80;99.90;;;;;;5039265;28;20063;-75
2022/05/20 11:01:44;;;;;;;5.70;2.25;;;18.90;99.90;;;;;;5062889;28;20403;-76
2022/05/20 11:04:13;;;;;;;6.85;2.42;;;18.90;99.90;;;;;;5042658;28;20044;-76
2022/05/20 11:07:00;;;;;;;7.95;3.00;;;19.00;99.90;;;;;;5075185;28;20044;-76
2022/05/20 11:09:56;;;;;;;12.07;2.88;;;19.10;99.90;;;;;;5036657;28;20048;-76
2022/05/20 11:12:48;;;;;;;7.05;3.20;;;19.10;99.90;;;;;;5049750;28;20072;-76
2022/05/20 11:15:26;;;;;;;6.45;3.42;;;19.20;99.90;;;;;;5065872;28;20063;-77
2022/05/20 11:18:01;;;;;;;7.25;4.00;;;19.20;99.90;;;;;;5054706;28;20460;-76
2022/05/20 11:20:58;;;;;;;14.80;3.88;;;19.20;99.90;;;;;;5064549;28;20082;-76
2022/05/20 11:24:01;;;;;;;7.38;3.17;;;19.20;99.90;;;;;;5067857;28;20127;-78
2022/05/20 11:26:55;;;;;;;7.25;3.40;;;19.20;99.90;;;;;;5063009;28;20049;-77
2022/05/20 11:29:46;;;;;;;9.27;4.28;;;19.20;99.90;;;;;;5059927;28;20080;-81
2022/05/20 11:32:26;;;;;;;6.68;3.63;;;19.20;99.90;;;;;;5040111;28;20125;-80
2022/05/20 11:35:29;;;;;;;7.53;3.40;;;19.20;99.90;;;;;;5062226;28;20425;-80
2022/05/20 11:38:19;;;;;;;9.70;4.00;;;19.40;99.90;;;;;;5032167;28;20106;-81
2022/05/20 11:41:25;;;;;;;10.15;4.00;;;19.50;99.90;;;;;;5039497;28;20060;-80
2022/05/20 11:44:29;;;;;;;6.22;3.55;;;19.60;99.90;;;;;;5013842;28;20056;-77
2022/05/20 11:47:18;;;;;;;6.63;3.85;;;19.70;99.90;;;;;;5036306;28;20045;-78
2022/05/20 11:49:53;;;;;;;8.15;3.58;;;19.90;99.90;;;;;;5050846;28;20053;-78
2022/05/20 11:52:25;;;;;;;4.55;2.92;;;19.90;99.90;;;;;;5048665;28;20438;-77
2022/05/20 11:55:04;;;;;;;9.35;3.42;;;20.00;99.90;;;;;;5056613;28;20049;-77
2022/05/20 11:57:38;;;;;;;6.82;3.40;;;20.00;99.90;;;;;;5066763;28;20080;-77
2022/05/20 12:00:13;;;;;;;5.45;3.17;;;20.20;99.90;;;;;;5048471;28;20257;-77
2022/05/20 12:03:00;;;;;;;5.78;3.13;;;20.30;99.90;;;;;;5055020;28;20098;-78
2022/05/20 12:05:30;;;;;;;8.35;3.75;;;20.40;99.90;;;;;;5033693;28;20441;-77
2022/05/20 12:07:56;;;;;;;5.75;3.78;;;20.50;99.90;;;;;;5047954;28;20144;-77
2022/05/20 12:10:34;;;;;;;7.43;3.58;;;20.50;99.90;;;;;;5049433;28;20420;-78
2022/05/20 12:13:11;;;;;;;6.47;3.30;;;20.60;99.90;;;;;;5067669;28;20064;-78
2022/05/20 12:15:41;;;;;;;6.05;3.28;;;20.60;99.50;;;;;;5067618;28;20041;-77
2022/05/20 12:24:33;;;;;;;5.65;2.90;;;20.60;98.40;;;;;;5051698;28;20168;-77
2022/05/20 12:26:59;;;;;;;8.13;4.15;;;20.60;98.40;;;;;;5053051;28;20420;-81
2022/05/20 12:29:37;;;;;;;7.35;4.15;;;20.60;98.40;;;;;;5073715;28;20047;-80
2022/05/20 12:32:15;;;;;;;9.18;4.32;;;20.60;98.50;;;;;;5054378;28;20060;-81
2022/05/20 12:34:42;;;;;;;9.02;4.93;;;20.60;98.40;;;;;;5047224;28;20063;-80
2022/05/20 12:37:28;;;;;;;10.38;4.13;;;20.60;97.60;;;;;;5064777;28;20074;-81
2022/05/20 12:39:53;;;;;;;5.25;3.90;;;20.60;97.80;;;;;;5069113;28;20059;-80
2022/05/20 12:42:26;;;;;;;9.38;3.88;;;20.60;97.60;;;;;;5070839;28;20041;-80
2022/05/20 12:44:53;;;;;;;6.22;3.72;;;20.60;97.90;;;;;;5051683;28;20041;-80
2022/05/20 12:47:37;;;;;;;7.63;4.20;;;20.70;97.90;;;;;;5061205;28;20037;-79
2022/05/20 12:50:15;;;;;;;5.00;3.58;;;20.80;97.90;;;;;;5065186;28;20849;-82
2022/05/20 12:52:51;;;;;;;5.90;3.58;;;20.90;97.60;;;;;;5058133;28;20517;-81
2022/05/20 12:55:52;;;;;;;5.13;3.22;;;20.90;97.30;;;;;;5071842;28;20048;-78
2022/05/20 12:58:22;;;;;;;;;;;20.90;97.10;;;;;;5070622;28;20056;-79
2022/05/20 13:00:51;;;;;;;6.47;3.88;;;20.80;97.60;;;;;;5085273;28;20307;-79
2022/05/20 13:03:17;;;;;;;6.30;3.92;;;20.80;96.90;;;;;;5084255;28;20044;-80
2022/05/20 13:05:57;;;;;;;6.65;3.45;;;20.80;96.60;;;;;;5067533;28;20063;-80
2022/05/20 13:08:31;;;;;;;9.23;4.70;;;20.80;96.70;;;;;;5085289;28;20048;-80
2022/05/20 13:11:09;;;;;;;6.28;3.92;;;20.80;96.60;;;;;;5078181;28;20036;-80
2022/05/20 13:13:36;;;;;;;8.88;4.57;;;20.70;96.40;;;;;;5088524;28;20247;-78
2022/05/20 13:16:05;;;;;;;6.78;3.72;;;20.70;96.00;;;;;;5073960;28;20047;-77
2022/05/20 13:18:37;;;;;;;7.65;3.78;;;20.70;96.00;;;;;;5069899;28;20051;-80
2022/05/20 13:21:22;;;;;;;5.18;3.95;;;20.50;95.50;;;;;;5084171;28;20048;-78
2022/05/20 13:23:50;;;;;;;8.70;4.38;;;20.40;95.40;;;;;;5071101;28;20198;-78
2022/05/20 13:26:31;;;;;;;8.73;4.30;;;20.30;95.10;;;;;;5066915;28;20169;-78
2022/05/20 13:29:10;;;;;;;8.32;3.72;;;20.20;94.90;;;;;;5062208;28;20432;-79
2022/05/20 13:31:36;;;;;;;6.75;3.70;;;20.10;94.90;;;;;;5085304;28;20040;-78
2022/05/20 13:34:02;;;;;;;6.97;3.65;;;20.10;95.00;;;;;;5090993;28;20051;-79
2022/05/20 13:36:35;;;;;;;10.00;4.22;;;20.00;95.20;;;;;;5088944;28;20048;-78
2022/05/20 13:39:02;;;;;;;8.25;4.35;;;19.90;95.20;;;;;;5088171;28;20055;-79
2022/05/20 13:41:32;;;;;;;9.02;4.25;;;19.90;95.50;;;;;;5088076;28;20044;-80